Time;durP1;ratioP1;P1;durP2;ratioP2;P2;SDS_P1;SDS_P2;PMS_P1;PMS_P2;Temp;Humidity;BMP_temperature;BMP_pressure;BME280_temperature;BME280_humidity;BME280_pressure;Samples;Min_cycle;Max_cycle;Signal;HPM_P1;HPM_P2
2022/09/13 00:00:06;;;;;;;3.92;2.70;;;;;;;17.37;61.73;99057.84;341288;28;1772;-65
2022/09/13 00:00:18;;;;;;;4.22;2.70;;;;;;;17.38;61.58;99056.88;341436;28;1809;-66
2022/09/13 00:00:30;;;;;;;4.55;2.83;;;;;;;17.39;61.62;99058.56;341216;28;1080;-66
2022/09/13 00:00:43;;;;;;;4.32;2.80;;;;;;;17.41;61.57;99058.47;341665;28;1041;-68
2022/09/13 00:00:56;;;;;;;3.50;3.10;;;;;;;17.39;62.04;99058.56;342354;28;1291;-67
2022/09/13 00:01:08;;;;;;;4.00;3.08;;;;;;;17.38;61.97;99062.13;341435;28;2000;-66
2022/09/13 00:01:20;;;;;;;4.05;3.03;;;;;;;17.39;61.89;99058.56;341671;28;1398;-66
2022/09/13 00:01:32;;;;;;;3.20;2.67;;;;;;;17.40;61.57;99054.97;341756;28;1040;-67
2022/09/13 00:01:45;;;;;;;2.83;2.53;;;;;;;17.41;61.71;99061.94;340953;28;2010;-65
2022/09/13 00:01:57;;;;;;;3.33;2.63;;;;;;;17.42;61.90;99057.50;341430;28;1858;-66
2022/09/13 00:02:09;;;;;;;3.70;2.72;;;;;;;17.40;61.79;99060.25;341167;28;1702;-66
2022/09/13 00:02:21;;;;;;;3.70;2.92;;;;;;;17.39;61.65;99058.56;341263;28;1043;-66
2022/09/13 00:02:33;;;;;;;3.88;3.00;;;;;;;17.39;61.83;99057.75;341738;28;1059;-66
2022/09/13 00:02:44;;;;;;;4.20;2.80;;;;;;;17.37;61.70;99060.47;341157;28;1990;-66
2022/09/13 00:02:57;;;;;;;3.80;2.78;;;;;;;17.34;61.73;99051.03;341022;28;1051;-66
2022/09/13 00:03:11;;;;;;;3.42;2.65;;;;;;;17.32;62.08;99057.31;340936;28;1904;-66
2022/09/13 00:03:22;;;;;;;3.45;3.00;;;;;;;17.32;61.83;99067.81;341070;28;1627;-66
2022/09/13 00:03:35;;;;;;;3.78;3.00;;;;;;;17.30;62.18;99061.84;341946;28;1083;-67
2022/09/13 00:03:47;;;;;;;4.30;2.97;;;;;;;17.29;62.19;99062.78;342076;28;1321;-67
2022/09/13 00:03:59;;;;;;;3.97;2.97;;;;;;;17.25;62.37;99062.16;341688;28;2216;-66
2022/09/13 00:04:11;;;;;;;3.67;2.90;;;;;;;17.24;62.67;99060.47;340899;28;1739;-67
2022/09/13 00:04:23;;;;;;;4.32;2.80;;;;;;;17.25;62.43;99061.34;341393;28;1050;-66
2022/09/13 00:04:35;;;;;;;5.03;2.80;;;;;;;17.22;62.45;99058.91;340395;28;1997;-66
2022/09/13 00:04:47;;;;;;;3.67;2.70;;;;;;;17.23;62.50;99063.22;340896;28;1807;-67
2022/09/13 00:04:59;;;;;;;3.00;2.72;;;;;;;17.21;62.48;99062.50;341553;28;2089;-66
2022/09/13 00:05:11;;;;;;;3.30;2.80;;;;;;;17.21;62.46;99065.13;342297;28;1087;-66
2022/09/13 00:05:23;;;;;;;3.70;2.90;;;;;;;17.20;62.91;99060.78;341598;28;1769;-67
2022/09/13 00:05:36;;;;;;;4.10;2.90;;;;;;;17.17;62.67;99060.06;342071;28;1058;-66
2022/09/13 00:05:48;;;;;;;3.95;2.75;;;;;;;17.16;62.56;99057.53;341928;28;1764;-65
2022/09/13 00:06:15;;;;;;;4.03;2.70;;;;;;;17.15;62.31;99061.13;342046;28;1552;-66
2022/09/13 00:06:27;;;;;;;3.50;2.72;;;;;;;17.16;62.47;99066.28;340861;29;1189;-67
2022/09/13 00:06:39;;;;;;;4.47;2.80;;;;;;;17.17;62.67;99065.31;340495;28;1975;-66
2022/09/13 00:06:51;;;;;;;4.65;2.80;;;;;;;17.17;62.63;99065.31;340850;28;1773;-66
2022/09/13 00:07:03;;;;;;;3.50;2.78;;;;;;;17.19;62.37;99059.13;341206;28;2168;-66
2022/09/13 00:07:15;;;;;;;3.30;2.90;;;;;;;17.20;62.15;99064.25;341770;28;1946;-67
2022/09/13 00:07:26;;;;;;;3.05;2.63;;;;;;;17.22;62.59;99066.78;341916;28;1047;-67
2022/09/13 00:07:38;;;;;;;2.97;2.60;;;;;;;17.22;62.45;99066.78;340520;29;1043;-66
2022/09/13 00:07:50;;;;;;;3.25;2.80;;;;;;;17.24;62.48;99067.53;341045;28;1586;-66
2022/09/13 00:08:04;;;;;;;3.85;2.72;;;;;;;17.24;62.42;99067.53;341627;28;1785;-67
2022/09/13 00:08:17;;;;;;;3.67;2.60;;;;;;;17.24;62.54;99064.88;340964;28;1957;-65
2022/09/13 00:08:28;;;;;;;4.20;2.60;;;;;;;17.24;62.39;99064.88;341101;28;1175;-66
2022/09/13 00:08:40;;;;;;;3.55;2.63;;;;;;;17.24;62.54;99064.88;340606;29;1055;-66
2022/09/13 00:08:53;;;;;;;3.80;2.63;;;;;;;17.21;62.65;99060.69;340744;29;1286;-66
2022/09/13 00:09:05;;;;;;;3.30;2.70;;;;;;;17.19;62.95;99064.38;339836;29;1921;-66
2022/09/13 00:09:17;;;;;;;3.00;2.65;;;;;;;17.19;62.88;99064.38;340565;29;1643;-67
2022/09/13 00:09:29;;;;;;;2.95;2.65;;;;;;;17.17;62.69;99064.47;339866;29;1814;-66
2022/09/13 00:09:41;;;;;;;2.97;2.67;;;;;;;17.13;62.57;99066.47;339417;29;1329;-66
2022/09/13 00:09:53;;;;;;;3.17;2.85;;;;;;;17.12;62.44;99064.81;338543;29;700;-66
2022/09/13 00:10:05;;;;;;;3.42;2.90;;;;;;;17.09;62.95;99062.38;338304;29;1728;-66
2022/09/13 00:10:17;;;;;;;3.42;2.83;;;;;;;17.10;62.93;99063.22;339556;29;1862;-66
2022/09/13 00:10:33;;;;;;;3.03;2.60;;;;;;;17.12;62.52;99059.56;339134;29;2074;-66
2022/09/13 00:10:45;;;;;;;2.97;2.40;;;;;;;17.13;62.43;99063.03;339797;29;1852;-66
2022/09/13 00:10:57;;;;;;;4.07;2.38;;;;;;;17.14;62.40;99060.28;340498;29;2035;-66
2022/09/13 00:11:15;;;;;;;5.03;2.50;;;;;;;17.15;62.35;99066.38;340393;29;1031;-66
2022/09/13 00:11:30;;;;;;;4.00;2.60;;;;;;;17.13;62.39;99057.75;342247;28;1091;-66
2022/09/13 00:11:42;;;;;;;3.05;2.50;;;;;;;17.11;62.38;99062.28;341647;28;1783;-66
2022/09/13 00:11:54;;;;;;;2.90;2.58;;;;;;;17.10;62.20;99064.06;341464;28;1632;-66
2022/09/13 00:12:06;;;;;;;2.92;2.63;;;;;;;17.11;62.24;99059.66;342116;28;1364;-67
2022/09/13 00:12:17;;;;;;;2.83;2.53;;;;;;;17.12;62.16;99066.56;341324;28;1610;-67
2022/09/13 00:12:29;;;;;;;2.50;2.30;;;;;;;17.08;62.53;99058.09;341598;28;1794;-65
2022/09/13 00:12:41;;;;;;;2.67;2.35;;;;;;;17.08;62.40;99068.59;340991;28;1825;-67
2022/09/13 00:12:54;;;;;;;2.72;2.45;;;;;;;17.06;62.17;99062.56;342274;28;1103;-67
2022/09/13 00:13:08;;;;;;;3.90;2.70;;;;;;;17.06;62.45;99056.50;341847;28;1716;-66
2022/09/13 00:13:20;;;;;;;3.88;2.70;;;;;;;17.07;62.46;99059.03;341031;28;1638;-68
2022/09/13 00:13:32;;;;;;;3.42;2.72;;;;;;;17.04;62.56;99056.59;341381;28;1252;-66
2022/09/13 00:13:44;;;;;;;3.22;2.70;;;;;;;17.07;62.48;99059.03;342145;28;1261;-67
2022/09/13 00:13:57;;;;;;;3.15;2.50;;;;;;;17.05;62.73;99055.66;342173;28;1038;-66
2022/09/13 00:14:09;;;;;;;3.20;2.50;;;;;;;17.05;62.62;99060.91;341174;28;1885;-66
2022/09/13 00:14:21;;;;;;;3.60;2.70;;;;;;;17.04;62.66;99051.34;341639;28;1493;-65
2022/09/13 00:14:33;;;;;;;2.95;2.60;;;;;;;17.06;62.58;99059.13;340615;28;1629;-65
2022/09/13 00:14:45;;;;;;;3.95;2.50;;;;;;;17.07;63.12;99058.19;340674;28;1549;-65
2022/09/13 00:14:57;;;;;;;3.55;2.40;;;;;;;17.08;62.90;99059.84;340685;28;1183;-65
2022/09/13 00:15:09;;;;;;;2.83;2.40;;;;;;;17.08;62.73;99055.47;341213;28;2031;-66
2022/09/13 00:15:22;;;;;;;2.92;2.42;;;;;;;17.10;62.88;99060.59;341446;28;1810;-67
2022/09/13 00:15:35;;;;;;;3.33;2.55;;;;;;;17.08;62.85;99058.09;341179;29;755;-67
2022/09/13 00:15:49;;;;;;;3.13;2.53;;;;;;;17.09;62.93;99057.13;340792;29;1031;-66
2022/09/13 00:16:02;;;;;;;3.10;2.50;;;;;;;17.10;62.59;99058.81;341960;28;1275;-66
2022/09/13 00:16:17;;;;;;;3.00;2.50;;;;;;;17.12;62.75;99063.94;340016;28;1959;-66
2022/09/13 00:16:29;;;;;;;3.43;2.50;;;;;;;17.12;62.85;99058.69;340588;29;1828;-66
2022/09/13 00:16:41;;;;;;;3.38;2.58;;;;;;;17.12;62.96;99056.06;340207;29;1105;-66
2022/09/13 00:16:53;;;;;;;3.40;2.60;;;;;;;17.13;62.85;99057.75;341872;28;1084;-66
2022/09/13 00:17:05;;;;;;;2.97;2.58;;;;;;;17.14;62.88;99057.66;342256;28;1169;-66
2022/09/13 00:17:17;;;;;;;3.45;2.38;;;;;;;17.14;62.60;99054.19;341621;28;1370;-67
2022/09/13 00:17:29;;;;;;;3.13;2.38;;;;;;;17.16;62.57;99053.16;341547;28;1550;-66
2022/09/13 00:17:41;;;;;;;2.88;2.40;;;;;;;17.15;62.58;99048.81;341543;28;1209;-66
2022/09/13 00:17:53;;;;;;;3.00;2.38;;;;;;;17.15;62.66;99056.72;339628;29;1072;-66
2022/09/13 00:18:05;;;;;;;2.90;2.20;;;;;;;17.17;62.63;99049.56;339628;29;1998;-66
2022/09/13 00:18:18;;;;;;;2.60;2.30;;;;;;;17.16;62.62;99053.16;339827;28;1881;-67
2022/09/13 00:18:30;;;;;;;2.58;2.38;;;;;;;17.16;62.57;99053.16;339570;29;1260;-66
2022/09/13 00:18:42;;;;;;;2.70;2.50;;;;;;;17.16;62.73;99052.28;340502;29;1894;-67
2022/09/13 00:18:55;;;;;;;2.90;2.60;;;;;;;17.17;62.60;99051.34;340680;29;1173;-66
2022/09/13 00:19:06;;;;;;;3.28;2.45;;;;;;;17.19;62.44;99051.25;340710;29;877;-66
2022/09/13 00:19:18;;;;;;;3.72;2.35;;;;;;;17.17;62.61;99049.56;340337;29;1276;-66
2022/09/13 00:19:30;;;;;;;3.60;2.35;;;;;;;17.17;62.53;99053.97;339948;28;1929;-66
2022/09/13 00:19:42;;;;;;;3.08;2.50;;;;;;;17.18;62.37;99050.38;341164;28;1707;-66
2022/09/13 00:19:54;;;;;;;3.00;2.60;;;;;;;17.17;62.39;99052.19;341884;28;1238;-66
2022/09/13 00:20:07;;;;;;;3.10;2.60;;;;;;;17.16;62.62;99053.16;341944;28;1379;-66
2022/09/13 00:20:19;;;;;;;3.13;2.70;;;;;;;17.15;62.83;99046.19;341585;28;1348;-67
2022/09/13 00:20:31;;;;;;;3.38;2.55;;;;;;;17.15;62.85;99051.44;340931;29;1132;-66
2022/09/13 00:20:43;;;;;;;3.30;2.40;;;;;;;17.16;62.82;99049.66;340938;29;1086;-66
2022/09/13 00:21:12;;;;;;;3.45;2.50;;;;;;;17.15;62.75;99046.19;340854;29;1058;-66
2022/09/13 00:21:24;;;;;;;3.20;2.65;;;;;;;17.17;63.05;99051.34;341156;28;1193;-66
2022/09/13 00:21:36;;;;;;;3.05;2.65;;;;;;;17.17;62.80;99052.19;341196;28;1360;-66
2022/09/13 00:21:48;;;;;;;2.90;2.60;;;;;;;17.16;63.03;99047.91;340629;29;1063;-66
2022/09/13 00:22:00;;;;;;;2.97;2.67;;;;;;;17.16;62.70;99047.91;339582;29;1052;-66
2022/09/13 00:22:11;;;;;;;3.00;2.70;;;;;;;17.16;62.89;99053.16;339518;29;1044;-66
2022/09/13 00:22:23;;;;;;;2.85;2.58;;;;;;;17.16;62.75;99055.78;340523;29;1201;-66
2022/09/13 00:22:36;;;;;;;3.00;2.50;;;;;;;17.19;62.79;99056.50;341978;28;1104;-66
2022/09/13 00:22:48;;;;;;;3.22;2.50;;;;;;;17.17;62.76;99052.19;342004;28;1166;-66
2022/09/13 00:23:00;;;;;;;2.92;2.40;;;;;;;17.17;62.67;99046.94;342060;28;1261;-67
2022/09/13 00:23:12;;;;;;;3.17;2.45;;;;;;;17.16;62.89;99052.28;341104;28;1269;-66
2022/09/13 00:23:24;;;;;;;4.03;2.70;;;;;;;17.14;62.92;99049.78;340936;29;1029;-67
2022/09/13 00:23:36;;;;;;;4.30;2.90;;;;;;;17.14;62.87;99055.03;340776;28;1722;-66
2022/09/13 00:23:51;;;;;;;3.53;2.90;;;;;;;17.14;62.81;99049.78;342198;28;1114;-66
2022/09/13 00:24:04;;;;;;;3.33;2.92;;;;;;;17.13;62.89;99053.34;342103;28;1440;-66
2022/09/13 00:24:16;;;;;;;4.22;2.78;;;;;;;17.14;62.80;99044.53;342282;28;1345;-65
2022/09/13 00:24:27;;;;;;;4.47;2.78;;;;;;;17.15;62.58;99048.00;342361;28;1088;-66
2022/09/13 00:24:40;;;;;;;3.20;2.60;;;;;;;17.14;62.58;99055.03;341653;28;1412;-67
2022/09/13 00:24:52;;;;;;;3.13;2.78;;;;;;;17.12;62.98;99049.06;342019;28;1244;-66
2022/09/13 00:25:06;;;;;;;3.38;3.00;;;;;;;17.11;63.10;99055.25;342370;28;1107;-67
2022/09/13 00:25:18;;;;;;;3.40;2.97;;;;;;;17.08;63.13;99052.84;342047;28;1300;-66
2022/09/13 00:25:30;;;;;;;3.33;2.80;;;;;;;17.08;63.12;99050.22;342428;28;1234;-67
2022/09/13 00:25:42;;;;;;;2.92;2.60;;;;;;;17.06;63.17;99049.44;341359;28;1854;-66
2022/09/13 00:26:05;;;;;;;2.97;2.67;;;;;;;17.08;62.92;99049.34;342134;28;1841;-67
2022/09/13 00:26:23;;;;;;;3.05;2.75;;;;;;;17.07;63.05;99045.91;340979;28;1368;-66
2022/09/13 00:26:35;;;;;;;3.40;2.90;;;;;;;17.07;63.00;99050.31;341753;28;1978;-66
2022/09/13 00:26:47;;;;;;;4.70;3.00;;;;;;;17.08;62.98;99051.97;341217;28;2011;-65
2022/09/13 00:26:59;;;;;;;4.90;2.90;;;;;;;17.06;63.13;99046.81;341924;28;1122;-66
2022/09/13 00:27:12;;;;;;;4.47;2.83;;;;;;;17.06;63.11;99052.06;342088;28;1067;-66
2022/09/13 00:27:24;;;;;;;3.58;2.80;;;;;;;17.06;63.08;99049.44;340942;28;1500;-65
2022/09/13 00:27:36;;;;;;;4.00;2.83;;;;;;;17.05;63.06;99047.78;341762;28;1555;-67
2022/09/13 00:27:49;;;;;;;4.50;2.88;;;;;;;17.04;63.21;99046.09;341063;29;967;-66
2022/09/13 00:28:01;;;;;;;4.80;2.78;;;;;;;17.02;63.25;99055.84;340360;29;1263;-65
2022/09/13 00:28:13;;;;;;;4.18;2.67;;;;;;;17.03;63.15;99052.31;339823;29;954;-66
2022/09/13 00:28:25;;;;;;;3.10;2.63;;;;;;;17.01;63.35;99051.56;340721;29;1448;-66
2022/09/13 00:28:37;;;;;;;3.50;2.80;;;;;;;17.01;63.40;99045.50;341300;28;1084;-66
2022/09/13 00:28:51;;;;;;;3.42;3.00;;;;;;;16.99;63.71;99050.84;342055;28;1137;-66
2022/09/13 00:29:03;;;;;;;3.63;2.97;;;;;;;16.95;63.60;99047.56;341971;28;1081;-66
2022/09/13 00:29:15;;;;;;;3.92;2.70;;;;;;;16.96;63.59;99056.28;342109;28;1265;-66
2022/09/13 00:29:27;;;;;;;3.83;2.70;;;;;;;16.96;63.25;99051.03;340547;28;1780;-66
2022/09/13 00:29:39;;;;;;;4.10;2.80;;;;;;;16.95;63.34;99050.19;341573;28;1427;-67
2022/09/13 00:29:51;;;;;;;3.90;2.85;;;;;;;16.97;63.17;99052.72;340581;28;2018;-66
2022/09/13 00:30:05;;;;;;;4.00;2.80;;;;;;;16.97;63.03;99052.72;340710;29;1192;-66
2022/09/13 00:30:17;;;;;;;3.10;2.55;;;;;;;16.98;62.79;99043.88;341129;28;1212;-65
2022/09/13 00:30:29;;;;;;;2.88;2.58;;;;;;;16.95;63.00;99049.38;343436;28;1151;-66
2022/09/13 00:30:41;;;;;;;2.83;2.60;;;;;;;16.94;63.05;99045.03;343341;28;1201;-66
2022/09/13 00:30:53;;;;;;;3.30;2.70;;;;;;;16.93;63.02;99048.63;343716;28;2534;-66
2022/09/13 00:31:07;;;;;;;3.63;2.70;;;;;;;16.91;63.10;99048.72;343566;28;1063;-66
2022/09/13 00:31:22;;;;;;;3.47;2.78;;;;;;;16.90;63.14;99046.19;342751;28;1419;-66
2022/09/13 00:31:34;;;;;;;3.63;2.80;;;;;;;16.88;62.95;99045.47;341851;28;2141;-67
2022/09/13 00:31:46;;;;;;;3.30;2.70;;;;;;;16.88;63.24;99048.09;342023;28;1228;-66
2022/09/13 00:31:58;;;;;;;3.60;2.70;;;;;;;16.87;63.22;99043.81;342149;28;1194;-66
2022/09/13 00:32:10;;;;;;;3.80;2.90;;;;;;;16.84;63.45;99044.00;342254;28;1216;-66
2022/09/13 00:32:22;;;;;;;3.72;2.90;;;;;;;16.83;63.37;99039.72;341525;28;1428;-66
2022/09/13 00:32:35;;;;;;;3.53;2.80;;;;;;;16.83;63.28;99037.91;340964;29;1061;-66
2022/09/13 00:32:47;;;;;;;3.50;2.90;;;;;;;16.82;63.16;99043.25;338643;29;1020;-65
2022/09/13 00:33:03;;;;;;;3.05;2.75;;;;;;;16.84;63.37;99042.22;340893;29;1168;-67
2022/09/13 00:33:15;;;;;;;2.95;2.65;;;;;;;16.83;63.27;99030.03;340946;29;1032;-65
2022/09/13 00:33:27;;;;;;;3.58;2.83;;;;;;;16.84;63.45;99041.38;339989;29;791;-66
2022/09/13 00:33:39;;;;;;;4.32;2.97;;;;;;;16.82;63.58;99036.25;339682;29;1547;-65
2022/09/13 00:33:51;;;;;;;5.28;3.03;;;;;;;16.83;63.62;99037.09;340688;29;1675;-66
2022/09/13 00:34:03;;;;;;;4.53;2.92;;;;;;;16.83;63.53;99039.72;341045;29;1259;-66
2022/09/13 00:34:14;;;;;;;3.90;2.90;;;;;;;16.83;63.94;99034.47;341036;29;1195;-67
2022/09/13 00:34:26;;;;;;;3.20;2.90;;;;;;;16.84;63.61;99038.75;341076;29;1296;-67
2022/09/13 00:34:38;;;;;;;3.17;2.80;;;;;;;16.85;63.50;99037.81;340185;29;1708;-67
2022/09/13 00:34:50;;;;;;;3.35;2.88;;;;;;;16.87;63.86;99033.31;340030;29;1019;-67
2022/09/13 00:35:04;;;;;;;3.72;3.08;;;;;;;16.86;63.68;99028.97;340985;29;1173;-67
2022/09/13 00:35:16;;;;;;;4.47;3.17;;;;;;;16.87;63.67;99028.88;339854;28;1330;-66
2022/09/13 00:35:28;;;;;;;4.30;3.00;;;;;;;16.88;63.40;99032.34;342523;28;1093;-66
2022/09/13 00:35:40;;;;;;;5.45;2.97;;;;;;;16.89;63.41;99034.03;340272;29;2145;-66
2022/09/13 00:35:52;;;;;;;5.53;3.00;;;;;;;16.86;63.94;99023.72;339627;29;1584;-66
2022/09/13 00:36:06;;;;;;;5.50;3.10;;;;;;;16.85;63.61;99027.31;338685;29;1197;-66
2022/09/13 00:36:18;;;;;;;4.80;3.20;;;;;;;16.85;63.91;99027.31;340184;29;1323;-67
2022/09/13 00:36:30;;;;;;;5.18;3.33;;;;;;;16.84;63.84;99025.63;340253;29;1737;-66
2022/09/13 00:36:42;;;;;;;5.10;3.30;;;;;;;16.81;63.73;99026.69;338324;29;1016;-66
2022/09/13 00:36:54;;;;;;;5.45;3.30;;;;;;;16.80;63.85;99021.50;338974;29;1262;-66
2022/09/13 00:37:07;;;;;;;4.50;3.25;;;;;;;16.77;63.94;99031.25;339694;29;1202;-66
2022/09/13 00:37:19;;;;;;;4.63;3.67;;;;;;;16.76;64.08;99029.59;340890;28;1386;-66
2022/09/13 00:37:33;;;;;;;4.30;3.53;;;;;;;16.74;63.83;99023.63;342377;28;1052;-66
2022/09/13 00:37:45;;;;;;;3.90;3.03;;;;;;;16.77;63.70;99027.81;341370;28;1610;-66
2022/09/13 00:37:58;;;;;;;3.47;2.90;;;;;;;16.77;63.59;99020.75;341372;28;1303;-67
2022/09/13 00:38:10;;;;;;;3.50;2.90;;;;;;;16.79;63.65;99023.28;341246;28;1153;-66
2022/09/13 00:38:22;;;;;;;3.47;2.80;;;;;;;16.82;63.45;99022.25;341755;28;1184;-66
2022/09/13 00:38:36;;;;;;;3.72;3.00;;;;;;;16.81;63.49;99020.56;341499;28;1197;-66
2022/09/13 00:38:48;;;;;;;3.53;3.00;;;;;;;16.80;63.59;99024.13;341722;28;2157;-66
2022/09/13 00:39:00;;;;;;;4.93;3.08;;;;;;;16.81;63.34;99020.56;341253;28;1046;-66
2022/09/13 00:39:12;;;;;;;6.53;3.17;;;;;;;16.81;63.41;99023.19;341038;28;1104;-67
2022/09/13 00:39:24;;;;;;;6.80;3.15;;;;;;;16.79;63.73;99018.03;341789;28;1168;-66
2022/09/13 00:39:36;;;;;;;4.60;3.00;;;;;;;16.78;63.78;99021.59;340978;29;1192;-66
2022/09/13 00:39:48;;;;;;;4.20;2.95;;;;;;;16.80;63.74;99030.22;340783;29;1285;-66
2022/09/13 00:40:02;;;;;;;4.00;3.10;;;;;;;16.78;63.82;99022.47;340901;29;1141;-66
2022/09/13 00:40:14;;;;;;;4.68;3.13;;;;;;;16.81;63.62;99020.56;341242;29;1664;-66
2022/09/13 00:40:29;;;;;;;4.18;2.97;;;;;;;16.81;63.55;99026.69;342335;28;1221;-66
2022/09/13 00:40:41;;;;;;;3.40;3.03;;;;;;;16.82;63.57;99027.50;342252;28;1023;-66
2022/09/13 00:40:53;;;;;;;3.90;3.17;;;;;;;16.84;63.53;99025.63;341919;28;1426;-66
2022/09/13 00:41:09;;;;;;;3.92;3.28;;;;;;;16.84;63.68;99026.50;341979;28;1849;-66
2022/09/13 00:41:21;;;;;;;5.25;3.10;;;;;;;16.84;63.69;99020.38;340293;29;1197;-66
2022/09/13 00:41:33;;;;;;;5.88;3.00;;;;;;;16.83;63.55;99016.91;340961;29;1022;-66
2022/09/13 00:41:45;;;;;;;5.70;3.08;;;;;;;16.84;63.58;99023.00;339873;29;1048;-65
2022/09/13 00:41:57;;;;;;;6.75;3.30;;;;;;;16.83;63.45;99023.97;339662;29;1595;-66
2022/09/13 00:42:11;;;;;;;6.85;3.40;;;;;;;16.83;63.47;99021.34;339888;29;1031;-66
2022/09/13 00:42:27;;;;;;;5.03;3.30;;;;;;;16.80;63.89;99026.75;339148;29;1568;-66
2022/09/13 00:42:39;;;;;;;6.05;3.20;;;;;;;16.81;63.91;99021.44;339034;29;1451;-66
2022/09/13 00:42:51;;;;;;;5.35;3.05;;;;;;;16.81;63.71;99010.06;339624;29;2249;-65
2022/09/13 00:43:03;;;;;;;4.90;3.00;;;;;;;16.79;63.76;99023.28;339583;29;1418;-67
2022/09/13 00:43:18;;;;;;;4.72;3.15;;;;;;;16.81;63.65;99021.44;339688;29;1072;-67
2022/09/13 00:43:43;;;;;;;6.78;3.40;;;;;;;16.80;63.72;99018.88;339666;29;1156;-66
2022/09/13 00:44:01;;;;;;;4.63;3.10;;;;;;;16.78;63.73;99011.97;342633;28;867;-66
2022/09/13 00:44:51;;;;;;;4.35;3.25;;;;;;;16.80;63.44;99019.72;340988;28;1243;-68
2022/09/13 00:45:05;;;;;;;3.95;3.20;;;;;;;16.80;63.30;99018.88;341098;29;1072;-66
2022/09/13 00:45:18;;;;;;;4.45;3.22;;;;;;;16.78;63.17;99017.22;341665;28;1274;-66
2022/09/13 00:45:30;;;;;;;3.90;3.10;;;;;;;16.81;63.49;99017.94;343739;28;1049;-66
2022/09/13 00:45:43;;;;;;;4.50;3.13;;;;;;;16.80;63.43;99013.63;343725;28;1149;-66
2022/09/13 00:45:55;;;;;;;3.87;3.20;;;;;;;16.78;63.42;99011.97;342650;28;1797;-66
2022/09/13 00:46:07;;;;;;;4.30;3.28;;;;;;;16.78;63.51;99011.97;341675;28;1787;-66
2022/09/13 00:46:41;;;;;;;3.60;3.17;;;;;;;16.80;63.29;99018.88;342316;28;1302;-65
2022/09/13 00:46:52;;;;;;;3.70;3.10;;;;;;;16.77;63.32;99015.50;342338;28;1062;-67
2022/09/13 00:47:05;;;;;;;4.40;3.28;;;;;;;16.74;63.56;99015.75;342352;28;1311;-67
2022/09/13 00:47:25;;;;;;;4.57;3.40;;;;;;;16.71;63.12;99025.59;342219;28;1331;-66
2022/09/13 00:47:50;;;;;;;3.78;3.30;;;;;;;16.70;63.41;99019.53;341164;29;1232;-66
2022/09/13 00:48:06;;;;;;;3.97;3.13;;;;;;;16.70;63.32;99019.53;340956;29;1064;-66
2022/09/13 00:48:21;;;;;;;4.28;3.05;;;;;;;16.66;63.50;99012.81;340831;29;2046;-66
2022/09/13 00:48:35;;;;;;;4.78;3.15;;;;;;;16.66;63.52;99018.06;340866;29;887;-65
2022/09/13 00:48:52;;;;;;;4.90;3.22;;;;;;;16.64;63.66;99014.69;339735;29;2124;-66
2022/09/13 00:49:14;;;;;;;4.85;3.33;;;;;;;16.63;63.87;99012.16;339950;29;1028;-66
2022/09/13 00:49:35;;;;;;;5.05;3.30;;;;;;;16.60;63.97;99023.72;340032;29;1877;-66
2022/09/13 00:49:52;;;;;;;4.65;3.20;;;;;;;16.62;64.16;99019.19;340765;29;1221;-65
2022/09/13 00:50:28;;;;;;;3.88;3.08;;;;;;;16.58;64.73;99022.97;340925;29;1185;-66
2022/09/13 00:50:44;;;;;;;4.18;3.00;;;;;;;16.58;64.53;99021.19;340982;28;1973;-66
2022/09/13 00:50:56;;;;;;;3.92;3.20;;;;;;;16.58;64.36;99025.59;341025;29;1099;-66
2022/09/13 00:51:10;;;;;;;4.00;3.20;;;;;;;16.58;64.11;99015.09;340871;28;1977;-66
2022/09/13 00:51:22;;;;;;;4.18;3.10;;;;;;;16.59;64.26;99022.03;341329;28;1418;-66
2022/09/13 00:51:35;;;;;;;4.20;3.10;;;;;;;16.58;64.48;99025.59;341369;28;1486;-66
2022/09/13 00:51:55;;;;;;;6.85;3.40;;;;;;;16.54;64.57;99016.22;341360;28;990;-66
2022/09/13 00:52:14;;;;;;;6.28;3.28;;;;;;;16.55;64.43;99021.38;341324;28;1174;-66
2022/09/13 00:52:30;;;;;;;4.60;3.10;;;;;;;16.58;64.24;99020.34;341966;28;1435;-66
2022/09/13 00:52:48;;;;;;;3.92;3.00;;;;;;;16.60;64.11;99028.09;341363;28;1097;-66
2022/09/13 00:53:07;;;;;;;3.28;2.97;;;;;;;16.61;63.95;99029.78;341209;28;1851;-66
2022/09/13 00:53:27;;;;;;;3.30;3.00;;;;;;;16.62;64.09;99027.06;341612;28;1979;-66
2022/09/13 00:53:44;;;;;;;3.55;2.90;;;;;;;16.62;63.83;99021.81;342066;28;1267;-67
2022/09/13 00:53:58;;;;;;;3.70;2.90;;;;;;;16.62;63.63;99027.06;342768;28;912;-66
2022/09/13 00:54:12;;;;;;;3.70;2.90;;;;;;;16.61;63.88;99016.69;341768;28;1905;-66
2022/09/13 00:54:31;;;;;;;4.15;3.10;;;;;;;16.60;64.11;99023.72;341741;28;1437;-66
2022/09/13 00:54:54;;;;;;;5.30;3.03;;;;;;;16.59;63.85;99022.03;340511;28;1952;-66
2022/09/13 00:55:47;;;;;;;3.35;2.78;;;;;;;16.62;63.83;99027.06;341020;28;971;-66
2022/09/13 00:55:59;;;;;;;4.80;2.90;;;;;;;16.61;63.88;99022.75;338301;29;1678;-66
2022/09/13 00:56:16;;;;;;;4.45;2.55;;;;;;;16.61;63.92;99030.63;338726;29;1825;-66
2022/09/13 00:56:36;;;;;;;4.90;2.70;;;;;;;16.62;63.74;99026.22;339035;29;1940;-66
2022/09/13 00:56:54;;;;;;;3.83;2.83;;;;;;;16.62;63.59;99018.34;339407;29;1793;-65
2022/09/13 00:57:07;;;;;;;4.03;2.80;;;;;;;16.61;63.70;99028.00;338405;29;1781;-66
2022/09/13 00:57:21;;;;;;;3.47;2.75;;;;;;;16.61;63.63;99030.63;338881;29;1846;-66
2022/09/13 00:57:35;;;;;;;3.80;2.80;;;;;;;16.61;63.76;99030.63;339474;29;1416;-66
2022/09/13 00:57:48;;;;;;;4.60;2.80;;;;;;;16.61;63.72;99028.00;338281;29;1708;-66
2022/09/13 00:58:07;;;;;;;4.30;2.70;;;;;;;16.61;63.71;99030.63;340426;29;959;-66
2022/09/13 00:58:34;;;;;;;3.33;2.75;;;;;;;16.60;63.51;99028.97;339796;29;1589;-66
2022/09/13 00:58:52;;;;;;;4.47;2.90;;;;;;;16.58;63.45;99030.84;340537;29;1067;-66
2022/09/13 00:59:10;;;;;;;5.47;2.80;;;;;;;16.54;63.83;99029.34;343769;28;1333;-67
2022/09/13 00:59:31;;;;;;;3.78;2.80;;;;;;;16.51;63.81;99035.66;342015;28;1654;-66
2022/09/13 00:59:50;;;;;;;3.58;3.08;;;;;;;16.50;63.80;99028.72;342175;28;1670;-66
2022/09/13 01:00:13;;;;;;;5.50;3.00;;;;;;;16.44;63.94;99030.91;341912;28;1266;-66
2022/09/13 01:00:25;;;;;;;6.22;3.00;;;;;;;16.42;64.06;99031.03;341586;28;1908;-66
2022/09/13 01:00:39;;;;;;;4.13;2.85;;;;;;;16.43;63.91;99029.25;341887;28;1510;-66
2022/09/13 01:00:54;;;;;;;4.18;2.70;;;;;;;16.42;64.13;99030.16;342236;28;1087;-66
2022/09/13 01:01:10;;;;;;;4.20;2.75;;;;;;;16.37;64.20;99033.94;341644;28;1743;-66
2022/09/13 01:01:28;;;;;;;5.20;3.15;;;;;;;16.33;64.18;99029.84;341862;28;1184;-66
2022/09/13 01:01:53;;;;;;;5.53;3.00;;;;;;;16.30;64.29;99042.34;341602;28;1022;-65
2022/09/13 01:02:06;;;;;;;4.47;2.85;;;;;;;16.31;64.48;99028.28;341207;28;1240;-66
2022/09/13 01:02:19;;;;;;;5.63;2.90;;;;;;;16.31;64.29;99028.28;341165;28;1425;-66
2022/09/13 01:02:31;;;;;;;5.97;2.90;;;;;;;16.33;64.20;99027.22;342706;28;773;-66
2022/09/13 01:02:49;;;;;;;4.85;2.53;;;;;;;16.34;64.40;99031.53;342610;28;1107;-66
2022/09/13 01:03:05;;;;;;;4.13;2.78;;;;;;;16.34;64.32;99031.53;342555;28;1075;-66
2022/09/13 01:03:22;;;;;;;4.10;3.00;;;;;;;16.33;64.38;99035.09;342270;28;1327;-65
2022/09/13 01:03:35;;;;;;;4.90;2.80;;;;;;;16.31;64.32;99038.75;342376;28;1040;-66
2022/09/13 01:03:48;;;;;;;4.53;2.75;;;;;;;16.29;64.52;99038.84;342446;28;1214;-66
2022/09/13 01:04:02;;;;;;;4.30;2.83;;;;;;;16.26;64.78;99025.97;342409;28;1283;-66
2022/09/13 01:04:18;;;;;;;4.53;2.97;;;;;;;16.26;64.57;99035.59;342461;28;995;-66
2022/09/13 01:04:33;;;;;;;5.47;2.95;;;;;;;16.24;64.68;99033.09;341474;28;2042;-66
2022/09/13 01:04:45;;;;;;;4.97;2.70;;;;;;;16.23;64.95;99041.06;341167;28;1838;-67
2022/09/13 01:04:57;;;;;;;3.40;2.60;;;;;;;16.25;65.22;99045.25;341231;28;1241;-66
2022/09/13 01:05:10;;;;;;;3.08;2.72;;;;;;;16.26;64.92;99039.06;342217;28;1972;-65
2022/09/13 01:05:29;;;;;;;3.55;2.90;;;;;;;16.26;64.73;99039.06;342106;28;1745;-66
2022/09/13 01:05:45;;;;;;;4.15;2.60;;;;;;;16.29;64.59;99031.00;342550;28;1189;-66
2022/09/13 01:06:02;;;;;;;2.85;2.55;;;;;;;16.30;64.43;99043.19;341189;28;1889;-66
2022/09/13 01:06:19;;;;;;;3.03;2.72;;;;;;;16.29;64.29;99033.59;341389;28;1295;-66
2022/09/13 01:06:36;;;;;;;3.10;2.80;;;;;;;16.29;64.52;99040.66;341307;28;1923;-66
2022/09/13 01:06:50;;;;;;;2.60;2.40;;;;;;;16.29;64.44;99041.47;341514;28;1761;-66
2022/09/13 01:07:07;;;;;;;2.80;2.40;;;;;;;16.28;64.15;99039.81;341280;28;1081;-66
2022/09/13 01:07:19;;;;;;;4.10;2.72;;;;;;;16.29;64.36;99038.03;341617;28;1872;-67
2022/09/13 01:07:32;;;;;;;4.68;2.80;;;;;;;16.27;64.57;99038.13;342209;28;1992;-66
2022/09/13 01:07:45;;;;;;;6.07;2.80;;;;;;;16.27;64.39;99043.34;341275;28;1039;-66